createdAt,value
2022-08-04T00:03:17.631Z,96973.00
2022-08-04T00:16:13.516Z,96968.00
2022-08-04T00:21:18.179Z,96959.00
2022-08-04T00:26:20.262Z,96962.00
2022-08-04T00:31:54.289Z,96965.00
2022-08-04T00:36:58.633Z,96953.00
2022-08-04T00:45:35.730Z,96963.00
2022-08-04T00:51:43.370Z,96960.00
2022-08-04T00:57:09.565Z,96968.00
2022-08-04T01:03:17.407Z,96959.00
2022-08-04T01:14:58.248Z,96955.00
2022-08-04T01:20:09.934Z,96953.00
2022-08-04T01:25:39.874Z,96946.00
2022-08-04T01:30:47.140Z,96947.00
2022-08-04T01:35:55.288Z,96949.00
2022-08-04T01:41:01.717Z,96937.00
2022-08-04T01:46:04.389Z,96941.00
2022-08-04T01:51:06.431Z,96947.00
2022-08-04T01:56:09.286Z,96941.00
2022-08-04T02:01:12.697Z,96941.00
2022-08-04T02:10:45.593Z,96940.00
2022-08-04T02:18:03.950Z,96930.00
2022-08-04T02:23:08.197Z,96915.00
2022-08-04T02:28:29.513Z,96917.00
2022-08-04T02:33:39.333Z,96911.00
2022-08-04T02:38:53.607Z,96912.00
2022-08-04T02:44:04.242Z,96906.00
2022-08-04T02:49:07.874Z,96902.00
2022-08-04T02:54:08.770Z,96901.00
2022-08-04T02:59:11.267Z,96897.00
2022-08-04T03:11:11.458Z,96890.00
2022-08-04T03:19:57.636Z,96889.00
2022-08-04T03:28:46.487Z,96895.00
2022-08-04T03:34:24.707Z,96894.00
2022-08-04T03:42:57.810Z,96895.00
2022-08-04T03:49:39.658Z,96901.00
2022-08-04T03:55:22.196Z,96908.00
2022-08-04T04:00:33.918Z,96899.00
2022-08-04T04:06:00.165Z,96889.00
2022-08-04T04:12:52.885Z,96891.00
2022-08-04T04:18:16.316Z,96896.00
2022-08-04T04:23:54.298Z,96898.00
2022-08-04T04:29:26.054Z,96901.00
2022-08-04T04:36:19.031Z,96906.00
2022-08-04T04:44:10.502Z,96905.00
2022-08-04T04:49:25.313Z,96906.00
2022-08-04T04:54:50.634Z,96913.00
2022-08-04T04:59:56.290Z,96906.00
2022-08-04T05:05:30.775Z,96913.00
2022-08-04T05:12:44.950Z,96924.00
2022-08-04T05:20:45.669Z,96922.00
2022-08-04T05:25:59.374Z,96932.00
2022-08-04T05:31:04.625Z,96937.00
2022-08-04T05:36:23.478Z,96941.00
2022-08-04T05:41:32.167Z,96935.00
2022-08-04T05:46:54.241Z,96937.00
2022-08-04T05:52:02.685Z,96936.00
2022-08-04T05:57:05.078Z,96938.00
2022-08-04T06:02:07.324Z,96950.00
2022-08-04T06:07:10.433Z,96945.00
2022-08-04T06:12:18.273Z,96949.00
2022-08-04T06:18:33.174Z,96946.00
2022-08-04T06:25:05.447Z,96937.00
2022-08-04T06:30:13.489Z,96932.00
2022-08-04T06:35:18.977Z,96938.00
2022-08-04T06:40:31.965Z,96934.00
2022-08-04T06:45:36.347Z,96954.00
2022-08-04T06:51:32.149Z,96943.00
2022-08-04T06:56:38.825Z,96940.00
2022-08-04T07:01:40.836Z,96944.00
2022-08-04T07:06:42.072Z,96941.00
2022-08-04T07:11:44.851Z,96941.00
2022-08-04T07:16:49.285Z,96945.00
2022-08-04T07:22:16.264Z,96952.00
2022-08-04T07:27:47.899Z,96948.00
2022-08-04T07:32:50.348Z,96948.00
2022-08-04T07:37:51.174Z,96956.00
2022-08-04T07:42:52.918Z,96946.00
2022-08-04T07:48:05.198Z,96950.00
2022-08-04T07:53:54.493Z,96949.00
2022-08-04T07:58:57.644Z,96944.00
2022-08-04T08:03:59.822Z,96943.00
2022-08-04T08:09:13.510Z,96937.00
2022-08-04T08:14:16.701Z,96943.00
2022-08-04T08:19:18.006Z,96944.00
2022-08-04T08:24:18.883Z,96941.00
2022-08-04T08:29:20.599Z,96945.00
2022-08-04T08:34:27.988Z,96943.00
2022-08-04T08:41:08.966Z,96938.00
2022-08-04T08:47:01.434Z,96939.00
2022-08-04T08:52:56.626Z,96937.00
2022-08-04T09:03:18.500Z,96934.00
2022-08-04T09:08:54.829Z,96950.00
2022-08-04T09:14:01.433Z,96943.00
2022-08-04T09:19:09.659Z,96943.00
2022-08-04T09:24:35.684Z,96944.00
2022-08-04T09:30:01.211Z,96939.00
2022-08-04T09:48:38.998Z,96939.00
2022-08-04T09:54:01.707Z,96941.00
2022-08-04T10:00:42.443Z,96940.00
2022-08-04T10:09:12.548Z,96933.00
2022-08-04T10:14:39.720Z,96929.00
2022-08-04T10:19:41.569Z,96931.00
2022-08-04T10:31:35.804Z,96920.00
2022-08-04T10:38:15.538Z,96923.00
2022-08-04T10:43:42.075Z,96916.00
2022-08-04T10:49:14.126Z,96912.00
2022-08-04T10:54:25.813Z,96903.00
2022-08-04T10:59:38.022Z,96903.00
2022-08-04T11:04:47.927Z,96887.00
2022-08-04T11:09:49.306Z,96900.00
2022-08-04T11:15:10.311Z,96879.00
2022-08-04T11:20:34.555Z,96881.00
2022-08-04T11:26:20.815Z,96884.00
2022-08-04T11:31:47.358Z,96880.00
2022-08-04T11:37:20.091Z,96875.00
2022-08-04T11:43:04.219Z,96885.00
2022-08-04T11:48:19.488Z,96880.00
2022-08-04T11:53:34.694Z,96892.00
2022-08-04T11:58:38.217Z,96885.00
2022-08-04T12:05:36.058Z,96893.00
2022-08-04T12:11:12.913Z,96873.00
2022-08-04T12:17:04.207Z,96869.00
2022-08-04T12:22:15.029Z,96861.00
2022-08-04T12:27:30.541Z,96875.00
2022-08-04T12:32:48.254Z,96866.00
2022-08-04T12:38:11.360Z,96860.00
2022-08-04T12:44:36.248Z,96853.00
2022-08-04T12:49:43.451Z,96840.00
2022-08-04T12:54:55.933Z,96828.00
2022-08-04T12:59:58.132Z,96835.00
2022-08-04T13:05:03.846Z,96839.00
2022-08-04T13:10:12.601Z,96833.00
2022-08-04T13:15:21.964Z,96840.00
2022-08-04T13:20:35.462Z,96838.00
2022-08-04T13:26:43.710Z,96824.00
2022-08-04T13:31:55.075Z,96822.00
2022-08-04T13:36:58.663Z,96807.00
2022-08-04T13:42:04.181Z,96803.00
2022-08-04T13:47:14.673Z,96810.00
2022-08-04T13:52:15.898Z,96812.00
2022-08-04T13:57:23.074Z,96807.00
2022-08-04T14:02:37.435Z,96807.00
2022-08-04T14:07:45.917Z,96804.00
2022-08-04T14:12:50.035Z,96799.00
2022-08-04T14:17:50.903Z,96801.00
2022-08-04T14:23:01.696Z,96796.00
2022-08-04T14:28:02.796Z,96795.00
2022-08-04T14:34:01.504Z,96791.00
2022-08-04T14:39:06.544Z,96787.00
2022-08-04T14:44:07.547Z,96790.00
2022-08-04T14:49:11.634Z,96787.00
2022-08-04T14:54:18.410Z,96782.00
2022-08-04T14:59:21.223Z,96787.00
2022-08-04T15:04:24.429Z,96777.00
2022-08-04T15:09:25.796Z,96781.00
2022-08-04T15:14:36.915Z,96781.00
2022-08-04T15:19:39.347Z,96783.00
2022-08-04T15:24:40.206Z,96775.00
2022-08-04T15:30:00.664Z,96779.00
2022-08-04T15:35:06.043Z,96779.00
2022-08-04T15:40:27.135Z,96789.00
2022-08-04T15:46:43.183Z,96793.00
2022-08-04T15:51:45.695Z,96787.00
2022-08-04T15:57:01.391Z,96785.00
2022-08-04T16:02:29.493Z,96794.00
2022-08-04T16:08:31.409Z,96783.00
2022-08-04T16:13:32.436Z,96787.00
2022-08-04T16:18:38.551Z,96783.00
2022-08-04T16:24:06.484Z,96782.00
2022-08-04T16:29:31.253Z,96783.00
2022-08-04T16:34:54.030Z,96778.00
2022-08-04T16:40:37.710Z,96772.00
2022-08-04T16:45:45.383Z,96766.00
2022-08-04T16:51:06.066Z,96771.00
2022-08-04T16:56:10.238Z,96766.00
2022-08-04T17:01:32.185Z,96762.00
2022-08-04T17:06:37.291Z,96758.00
2022-08-04T17:11:39.101Z,96755.00
2022-08-04T17:16:41.914Z,96751.00
2022-08-04T17:21:43.855Z,96751.00
2022-08-04T17:26:53.741Z,96745.00
2022-08-04T17:31:55.722Z,96738.00
2022-08-04T17:37:24.102Z,96741.00
2022-08-04T17:42:38.838Z,96739.00
2022-08-04T17:47:51.765Z,96737.00
2022-08-04T17:53:11.953Z,96739.00
2022-08-04T17:58:21.533Z,96737.00
2022-08-04T18:03:29.856Z,96735.00
2022-08-04T18:08:39.048Z,96746.00
2022-08-04T18:13:43.346Z,96744.00
2022-08-04T18:19:06.256Z,96741.00
2022-08-04T18:24:07.482Z,96743.00
2022-08-04T18:29:26.614Z,96741.00
2022-08-04T18:34:32.464Z,96738.00
2022-08-04T18:40:24.934Z,96738.00
2022-08-04T18:45:34.309Z,96760.00
2022-08-04T18:51:09.223Z,96761.00
2022-08-04T18:56:19.941Z,96754.00
2022-08-04T19:02:13.700Z,96757.00
2022-08-04T19:07:24.682Z,96769.00
2022-08-04T19:12:32.568Z,96770.00
2022-08-04T19:17:53.856Z,96776.00
2022-08-04T19:24:28.692Z,96778.00
2022-08-04T19:29:40.782Z,96784.00
2022-08-04T19:34:46.334Z,96782.00
2022-08-04T19:39:48.356Z,96780.00
2022-08-04T19:44:49.328Z,96779.00
2022-08-04T19:50:05.432Z,96788.00
2022-08-04T19:55:11.792Z,96786.00
2022-08-04T20:00:13.590Z,96786.00
2022-08-04T20:05:16.198Z,96793.00
2022-08-04T20:10:18.261Z,96794.00
2022-08-04T20:15:25.175Z,96807.00
2022-08-04T20:20:26.006Z,96823.00
2022-08-04T20:25:36.490Z,96825.00
2022-08-04T20:30:38.840Z,96832.00
2022-08-04T20:36:00.706Z,96830.00
2022-08-04T20:41:05.655Z,96838.00
2022-08-04T22:30:17.050Z,96840.00
2022-08-04T22:35:35.546Z,96888.00
2022-08-04T22:40:47.563Z,96886.00
2022-08-04T22:45:48.624Z,96887.00
2022-08-04T22:50:52.442Z,96899.00
2022-08-04T22:56:06.296Z,96904.00
2022-08-04T23:01:09.443Z,96908.00
2022-08-04T23:06:11.918Z,96873.00
2022-08-04T23:11:12.825Z,96924.00
2022-08-04T23:16:13.721Z,97118.00
2022-08-04T23:21:14.611Z,97113.00
2022-08-04T23:26:15.854Z,97006.00
2022-08-04T23:31:17.168Z,96989.00
2022-08-04T23:36:29.552Z,97019.00
2022-08-04T23:41:53.815Z,97026.00
2022-08-04T23:47:01.428Z,97029.00
2022-08-04T23:52:03.524Z,97111.00
2022-08-04T23:57:08.916Z,97070.00
